KJRB/JRB METAR and TAF weather

Enter ICAO airport designator
Station Type Date Time Source
KJRB METAR 2021/11/13 17:56 UTC NOAA

KJRB 131756Z AUTO 19011G18KT 10SM SCT070 17/10 A2965 RMK AO2 LTG DSNT W AND NW SLPNO 6//// T01720100


Station Type Date Time Source
KJRB Decoded METAR 2021/11/13 17:56 UTC NOAA

Station name not available
Nov 13, 2021 - 12:56 PM EST / 2021.11.13 1756 UTC
Wind: from the S (190 degrees) at 13 MPH (11 KT) gusting to 21 MPH (18 KT):0
Visibility: 10 mile(s):0
Sky conditions: partly cloudy
Weather: Lightning observed
Temperature: 63.0 F (17.2 C)
Dew Point: 50.0 F (10.0 C)
Relative Humidity: 62%
Pressure (altimeter): 29.65 in. Hg (1004 hPa)
ob: KJRB 131756Z AUTO 19011G18KT 10SM SCT070 17/10 A2965 RMK AO2 LTG DSNT W AND NW SLPNO 6//// T01720100
cycle: 18

Station Type Date Time Source
KJRB TAF UTC NOAA

Error!

Example: see airport list